createdAt,value
2018-07-14T00:01:10.850Z,5.20
2018-07-14T00:03:39.164Z,4.03
2018-07-14T00:06:07.498Z,4.10
2018-07-14T00:08:35.568Z,3.60
2018-07-14T00:11:03.622Z,3.60
2018-07-14T00:13:32.042Z,3.77
2018-07-14T00:16:00.386Z,4.30
2018-07-14T00:18:28.484Z,3.70
2018-07-14T00:20:56.778Z,4.90
2018-07-14T00:23:25.100Z,4.92
2018-07-14T00:26:03.144Z,5.00
2018-07-14T00:28:33.018Z,4.50
2018-07-14T00:31:01.355Z,4.20
2018-07-14T00:33:30.356Z,4.97
2018-07-14T00:35:58.660Z,4.85
2018-07-14T00:38:27.457Z,5.65
2018-07-14T00:40:55.853Z,5.60
2018-07-14T00:43:23.923Z,5.78
2018-07-14T00:45:51.985Z,5.10
2018-07-14T00:48:20.286Z,4.72
2018-07-14T00:50:48.342Z,4.62
2018-07-14T00:53:16.406Z,4.53
2018-07-14T00:55:44.826Z,4.15
2018-07-14T00:58:13.096Z,4.08
2018-07-14T01:00:41.398Z,4.40
2018-07-14T01:03:09.774Z,4.58
2018-07-14T01:05:38.106Z,4.67
2018-07-14T01:08:06.483Z,3.87
2018-07-14T01:10:34.559Z,4.62
2018-07-14T01:13:02.616Z,4.30
2018-07-14T01:15:30.923Z,4.12
2018-07-14T01:17:59.009Z,4.65
2018-07-14T01:20:27.361Z,4.37
2018-07-14T01:22:55.398Z,4.12
2018-07-14T01:25:23.740Z,4.05
2018-07-14T01:27:52.018Z,3.85
2018-07-14T01:30:20.334Z,4.20
2018-07-14T01:32:48.701Z,3.98
2018-07-14T01:35:17.075Z,4.70
2018-07-14T01:37:45.353Z,3.92
2018-07-14T01:40:13.713Z,3.90
2018-07-14T01:42:42.044Z,4.50
2018-07-14T01:45:10.353Z,3.83
2018-07-14T01:47:38.679Z,4.45
2018-07-14T01:50:07.015Z,4.35
2018-07-14T01:52:35.040Z,4.60
2018-07-14T01:55:03.388Z,4.35
2018-07-14T01:57:31.707Z,4.60
2018-07-14T02:00:00.036Z,4.15
2018-07-14T02:02:28.134Z,4.45
2018-07-14T02:04:56.387Z,4.80
2018-07-14T02:07:24.725Z,4.78
2018-07-14T02:09:52.779Z,5.85
2018-07-14T02:12:21.105Z,5.62
2018-07-14T02:14:49.418Z,6.40
2018-07-14T02:17:17.734Z,6.08
2018-07-14T02:19:45.816Z,6.28
2018-07-14T02:22:14.121Z,6.45
2018-07-14T02:24:42.465Z,5.40
2018-07-14T02:27:10.487Z,6.12
2018-07-14T02:29:38.749Z,6.53
2018-07-14T02:32:06.896Z,7.17
2018-07-14T02:34:35.138Z,7.28
2018-07-14T02:37:03.429Z,8.23
2018-07-14T02:39:31.784Z,7.30
2018-07-14T02:42:00.110Z,7.27
2018-07-14T02:44:28.409Z,7.50
2018-07-14T02:46:56.762Z,6.60
2018-07-14T02:49:24.801Z,6.67
2018-07-14T02:51:53.105Z,5.97
2018-07-14T02:54:21.159Z,7.37
2018-07-14T02:56:49.218Z,6.90
2018-07-14T02:59:17.501Z,6.23
2018-07-14T03:01:45.833Z,6.05
2018-07-14T03:04:14.134Z,5.47
2018-07-14T03:06:42.485Z,5.72
2018-07-14T03:09:10.847Z,5.93
2018-07-14T03:11:39.137Z,5.58
2018-07-14T03:14:07.439Z,6.17
2018-07-14T03:16:35.753Z,6.47
2018-07-14T03:19:03.817Z,6.10
2018-07-14T03:21:32.204Z,6.70
2018-07-14T03:24:00.289Z,6.33
2018-07-14T03:26:28.321Z,6.85
2018-07-14T03:28:56.631Z,5.83
2018-07-14T03:31:24.688Z,6.58
2018-07-14T03:33:52.978Z,6.67
2018-07-14T03:36:21.003Z,5.45
2018-07-14T03:38:49.344Z,6.00
2018-07-14T03:41:17.665Z,5.63
2018-07-14T03:43:45.961Z,5.92
2018-07-14T03:46:14.339Z,5.83
2018-07-14T03:48:42.613Z,6.95
2018-07-14T03:51:10.993Z,5.78
2018-07-14T03:53:39.379Z,5.58
2018-07-14T03:56:07.664Z,6.28
2018-07-14T03:58:36.002Z,6.08
2018-07-14T04:01:04.307Z,5.83
2018-07-14T04:03:32.654Z,5.10
2018-07-14T04:06:00.968Z,6.45
2018-07-14T04:08:29.659Z,5.47
2018-07-14T04:10:58.000Z,6.30
2018-07-14T04:13:26.296Z,6.75
2018-07-14T04:15:54.636Z,5.35
2018-07-14T04:18:22.930Z,6.67
2018-07-14T04:20:51.234Z,5.40
2018-07-14T04:23:19.594Z,5.80
2018-07-14T04:25:47.894Z,7.12
2018-07-14T04:28:16.259Z,6.15
2018-07-14T04:30:44.575Z,5.85
2018-07-14T04:33:12.629Z,5.40
2018-07-14T04:35:40.936Z,6.23
2018-07-14T04:38:08.996Z,6.35
2018-07-14T04:40:37.033Z,6.00
2018-07-14T04:43:05.399Z,6.50
2018-07-14T04:45:33.730Z,6.50
2018-07-14T04:48:01.745Z,6.20
2018-07-14T04:50:30.119Z,6.45
2018-07-14T04:52:58.492Z,6.93
2018-07-14T04:55:26.821Z,6.03
2018-07-14T04:57:54.869Z,6.90
2018-07-14T05:00:23.221Z,7.03
2018-07-14T05:02:51.549Z,8.27
2018-07-14T05:05:19.593Z,7.47
2018-07-14T05:07:47.977Z,7.00
2018-07-14T05:10:16.303Z,6.97
2018-07-14T05:12:44.564Z,6.22
2018-07-14T05:15:12.663Z,7.97
2018-07-14T05:17:40.957Z,8.93
2018-07-14T05:20:09.312Z,7.15
2018-07-14T05:22:37.612Z,8.00
2018-07-14T05:25:05.938Z,6.95
2018-07-14T05:27:33.966Z,6.65
2018-07-14T05:30:02.314Z,7.22
2018-07-14T05:32:30.618Z,6.72
2018-07-14T05:34:58.950Z,7.20
2018-07-14T05:37:27.000Z,7.17
2018-07-14T05:39:55.287Z,6.33
2018-07-14T05:42:23.602Z,8.03
2018-07-14T05:44:51.946Z,6.25
2018-07-14T05:47:20.383Z,5.80
2018-07-14T05:49:49.001Z,6.45
2018-07-14T05:52:17.375Z,7.00
2018-07-14T05:54:45.697Z,7.95
2018-07-14T05:57:13.963Z,6.78
2018-07-14T05:59:42.042Z,6.20
2018-07-14T06:02:10.316Z,7.12
2018-07-14T06:04:38.357Z,7.10
2018-07-14T06:07:06.721Z,6.90
2018-07-14T06:09:35.037Z,6.50
2018-07-14T06:12:04.612Z,7.90
2018-07-14T06:14:33.001Z,7.47
2018-07-14T06:17:01.336Z,8.10
2018-07-14T06:19:29.712Z,8.33
2018-07-14T06:21:58.081Z,6.90
2018-07-14T06:24:26.490Z,7.17
2018-07-14T06:26:54.832Z,7.05
2018-07-14T06:29:23.151Z,7.58
2018-07-14T06:31:51.467Z,6.65
2018-07-14T06:34:19.540Z,6.90
2018-07-14T06:36:47.677Z,7.65
2018-07-14T06:39:16.013Z,7.28
2018-07-14T06:41:44.380Z,6.75
2018-07-14T06:44:12.556Z,6.22
2018-07-14T06:46:40.827Z,5.97
2018-07-14T06:49:08.919Z,7.40
2018-07-14T06:51:41.601Z,7.60
2018-07-14T06:54:10.615Z,7.25
2018-07-14T06:56:38.884Z,6.28
2018-07-14T06:59:08.770Z,6.05
2018-07-14T07:01:36.805Z,5.90
2018-07-14T07:04:05.112Z,6.03
2018-07-14T07:06:33.280Z,5.50
2018-07-14T07:09:01.316Z,5.67
2018-07-14T07:11:29.696Z,6.00
2018-07-14T07:13:58.092Z,6.53
2018-07-14T07:16:26.472Z,6.72
2018-07-14T07:18:54.833Z,5.70
2018-07-14T07:21:23.306Z,6.00
2018-07-14T07:23:51.571Z,5.40
2018-07-14T07:26:19.894Z,5.22
2018-07-14T07:28:48.418Z,5.58
2018-07-14T07:31:16.707Z,5.28
2018-07-14T07:33:45.013Z,4.95
2018-07-14T07:36:13.382Z,5.80
2018-07-14T07:38:41.824Z,4.95
2018-07-14T07:41:10.231Z,5.72
2018-07-14T07:43:38.562Z,4.90
2018-07-14T07:46:06.606Z,4.97
2018-07-14T07:48:35.039Z,4.55
2018-07-14T07:51:03.312Z,4.78
2018-07-14T07:53:32.771Z,5.10
2018-07-14T07:56:00.940Z,5.10
2018-07-14T07:58:29.304Z,5.20
2018-07-14T08:00:57.630Z,5.47
2018-07-14T08:03:25.789Z,4.80
2018-07-14T08:05:54.169Z,4.58
2018-07-14T08:08:22.476Z,4.90
2018-07-14T08:10:50.808Z,4.40
2018-07-14T08:13:19.217Z,4.00
2018-07-14T08:15:47.269Z,5.10
2018-07-14T08:18:15.619Z,4.53
2018-07-14T08:20:43.995Z,4.17
2018-07-14T08:23:12.386Z,4.47
2018-07-14T08:25:40.738Z,4.55
2018-07-14T08:28:09.338Z,4.72
2018-07-14T08:30:37.728Z,5.37
2018-07-14T08:33:07.757Z,4.58
2018-07-14T08:35:38.109Z,4.70
2018-07-14T08:38:06.493Z,5.17
2018-07-14T08:40:34.814Z,4.65
2018-07-14T08:43:03.197Z,4.83
2018-07-14T08:45:31.537Z,5.42
2018-07-14T08:47:59.683Z,5.05
2018-07-14T08:50:28.076Z,3.92
2018-07-14T08:52:56.396Z,4.12
2018-07-14T08:55:24.788Z,4.00
2018-07-14T08:57:53.159Z,4.97
2018-07-14T09:00:21.655Z,4.67
2018-07-14T09:02:50.004Z,4.72
2018-07-14T09:05:18.393Z,4.47
2018-07-14T09:07:46.738Z,4.50
2018-07-14T09:10:14.798Z,4.12
2018-07-14T09:12:42.926Z,4.70
2018-07-14T09:15:11.246Z,4.75
2018-07-14T09:17:39.344Z,3.85
2018-07-14T09:20:07.711Z,3.98
2018-07-14T09:22:35.787Z,4.22
2018-07-14T09:25:03.982Z,4.08
2018-07-14T09:27:32.378Z,3.90
2018-07-14T09:30:00.759Z,4.15
2018-07-14T09:32:29.089Z,4.65
2018-07-14T09:34:57.221Z,4.45
2018-07-14T09:37:25.573Z,3.90
2018-07-14T09:39:53.928Z,14.10
2018-07-14T09:42:23.184Z,12.43
2018-07-14T09:44:51.561Z,4.72
2018-07-14T09:47:19.946Z,4.90
2018-07-14T09:49:50.287Z,4.55
